createdAt,value
2019-01-17T00:02:01.899Z,72.03
2019-01-17T00:04:35.935Z,72.19
2019-01-17T00:07:10.473Z,71.91
2019-01-17T00:09:44.428Z,71.98
2019-01-17T00:12:19.443Z,72.02
2019-01-17T00:14:53.580Z,72.02
2019-01-17T00:17:27.849Z,71.76
2019-01-17T00:22:06.379Z,71.65
2019-01-17T00:25:40.323Z,71.58
2019-01-17T00:28:16.406Z,71.74
2019-01-17T00:30:52.340Z,71.60
2019-01-17T00:34:27.362Z,71.66
2019-01-17T00:37:13.420Z,71.60
2019-01-17T00:39:46.532Z,71.56
2019-01-17T00:42:20.798Z,71.34
2019-01-17T00:45:01.971Z,71.22
2019-01-17T00:47:36.512Z,71.33
2019-01-17T00:52:14.327Z,71.49
2019-01-17T00:56:55.226Z,71.40
2019-01-17T00:59:35.595Z,71.31
2019-01-17T01:03:08.624Z,71.14
2019-01-17T01:05:42.748Z,71.24
2019-01-17T01:08:28.962Z,70.92
2019-01-17T01:11:35.384Z,70.78
2019-01-17T01:15:14.802Z,70.61
2019-01-17T01:17:50.782Z,70.57
2019-01-17T01:20:24.716Z,70.61
2019-01-17T01:25:05.957Z,70.46
2019-01-17T01:27:40.084Z,70.31
2019-01-17T01:30:16.808Z,70.41
2019-01-17T01:32:54.906Z,70.56
2019-01-17T01:37:32.514Z,70.61
2019-01-17T01:40:12.578Z,70.34
2019-01-17T01:42:46.679Z,70.32
2019-01-17T01:45:26.759Z,70.20
2019-01-17T01:51:15.035Z,70.14
2019-01-17T01:53:44.148Z,70.21
2019-01-17T01:56:13.167Z,70.34
2019-01-17T01:58:42.262Z,70.08
2019-01-17T02:01:11.255Z,69.97
2019-01-17T02:03:40.329Z,69.95
2019-01-17T02:06:09.666Z,70.02
2019-01-17T02:08:38.727Z,69.72
2019-01-17T02:11:07.870Z,69.71
2019-01-17T02:13:36.934Z,69.60
2019-01-17T02:16:06.340Z,69.51
2019-01-17T02:18:35.364Z,69.65
2019-01-17T02:21:04.466Z,69.43
2019-01-17T02:23:33.545Z,69.37
2019-01-17T02:26:02.596Z,69.11
2019-01-17T02:28:31.735Z,69.39
2019-01-17T02:31:00.824Z,69.41
2019-01-17T02:33:29.853Z,69.09
2019-01-17T02:35:58.934Z,69.25
2019-01-17T02:38:28.640Z,69.39
2019-01-17T02:40:57.830Z,69.58
2019-01-17T02:43:26.937Z,69.40
2019-01-17T02:45:56.014Z,69.60
2019-01-17T02:48:25.967Z,69.41
2019-01-17T02:50:55.027Z,69.19
2019-01-17T02:53:24.027Z,69.44
2019-01-17T02:55:53.372Z,69.37
2019-01-17T02:58:22.480Z,69.31
2019-01-17T03:00:51.517Z,69.59
2019-01-17T03:03:21.537Z,69.46
2019-01-17T03:05:50.577Z,69.36
2019-01-17T03:08:19.618Z,69.70
2019-01-17T03:10:48.705Z,69.64
2019-01-17T03:13:17.727Z,69.85
2019-01-17T03:15:46.780Z,70.07
2019-01-17T03:18:15.902Z,70.01
2019-01-17T03:20:45.003Z,70.23
2019-01-17T03:23:14.011Z,70.16
2019-01-17T03:25:43.097Z,70.12
2019-01-17T03:28:12.737Z,70.31
2019-01-17T03:30:41.805Z,70.57
2019-01-17T03:33:11.072Z,70.46
2019-01-17T03:35:40.156Z,70.66
2019-01-17T03:38:09.189Z,70.60
2019-01-17T03:40:38.178Z,70.88
2019-01-17T03:43:08.086Z,70.94
2019-01-17T03:45:37.089Z,70.82
2019-01-17T03:48:06.120Z,70.71
2019-01-17T03:50:35.169Z,70.87
2019-01-17T03:53:04.281Z,71.29
2019-01-17T03:55:33.416Z,71.15
2019-01-17T03:58:02.598Z,70.94
2019-01-17T04:00:31.678Z,71.06
2019-01-17T04:03:00.695Z,71.18
2019-01-17T04:05:29.702Z,70.99
2019-01-17T04:07:58.739Z,70.95
2019-01-17T04:10:27.808Z,71.09
2019-01-17T04:12:56.819Z,71.15
2019-01-17T04:15:25.958Z,71.31
2019-01-17T04:17:55.044Z,71.39
2019-01-17T04:20:24.099Z,71.65
2019-01-17T04:22:53.226Z,71.53
2019-01-17T04:25:22.315Z,71.72
2019-01-17T04:27:51.384Z,71.92
2019-01-17T04:30:20.554Z,71.81
2019-01-17T04:32:49.775Z,71.86
2019-01-17T04:35:18.852Z,71.90
2019-01-17T04:37:47.961Z,71.81
2019-01-17T04:40:17.050Z,71.97
2019-01-17T04:42:48.500Z,71.92
2019-01-17T04:45:17.553Z,71.90
2019-01-17T04:47:46.719Z,71.89
2019-01-17T04:50:16.114Z,71.87
2019-01-17T04:52:45.187Z,71.68
2019-01-17T04:55:14.613Z,71.89
2019-01-17T04:57:43.751Z,72.01
2019-01-17T05:00:17.600Z,71.71
2019-01-17T05:02:46.696Z,71.87
2019-01-17T05:05:15.840Z,72.02
2019-01-17T05:07:44.927Z,72.04
2019-01-17T05:10:14.409Z,71.91
2019-01-17T05:12:44.340Z,72.32
2019-01-17T05:15:13.839Z,72.04
2019-01-17T05:17:42.850Z,72.09
2019-01-17T05:20:14.254Z,72.23
2019-01-17T05:22:43.384Z,72.00
2019-01-17T05:25:13.097Z,72.08
2019-01-17T05:27:41.723Z,72.03
2019-01-17T05:30:13.584Z,72.27
2019-01-17T05:32:42.593Z,72.27
2019-01-17T05:35:11.659Z,72.33
2019-01-17T05:37:40.682Z,72.45
2019-01-17T05:40:12.628Z,72.34
2019-01-17T05:42:42.287Z,72.46
2019-01-17T05:45:11.387Z,72.12
2019-01-17T05:47:41.088Z,71.91
2019-01-17T05:50:11.727Z,71.87
2019-01-17T05:52:40.809Z,71.92
2019-01-17T05:55:10.016Z,71.62
2019-01-17T05:57:39.080Z,71.62
2019-01-17T06:03:09.016Z,71.74
2019-01-17T06:05:38.595Z,71.80
2019-01-17T06:08:07.769Z,72.01
2019-01-17T06:10:37.181Z,72.07
2019-01-17T06:13:06.343Z,72.17
2019-01-17T06:15:36.371Z,72.55
2019-01-17T06:18:05.430Z,72.59
2019-01-17T06:20:34.654Z,73.03
2019-01-17T06:23:04.907Z,72.93
2019-01-17T06:25:34.227Z,72.75
2019-01-17T06:28:03.842Z,72.87
2019-01-17T06:30:32.982Z,72.70
2019-01-17T06:33:02.117Z,72.84
2019-01-17T06:35:31.170Z,72.42
2019-01-17T06:38:00.245Z,71.88
2019-01-17T06:40:31.626Z,71.96
2019-01-17T06:43:00.700Z,72.02
2019-01-17T06:45:29.799Z,71.63
2019-01-17T06:47:58.992Z,71.67
2019-01-17T06:50:28.080Z,71.35
2019-01-17T06:52:57.170Z,71.15
2019-01-17T06:55:26.933Z,71.00
2019-01-17T06:57:56.017Z,70.72
2019-01-17T07:00:25.129Z,70.51
2019-01-17T07:02:54.219Z,70.61
2019-01-17T07:05:23.250Z,70.20
2019-01-17T07:07:52.841Z,70.38
2019-01-17T07:10:25.194Z,70.39
2019-01-17T07:12:54.390Z,70.14
2019-01-17T07:15:23.448Z,70.19
2019-01-17T07:17:53.164Z,70.06
2019-01-17T07:20:26.308Z,70.21
2019-01-17T07:22:55.376Z,70.01
2019-01-17T07:25:25.136Z,69.44
2019-01-17T07:27:54.183Z,68.77
2019-01-17T07:30:24.804Z,68.35
2019-01-17T07:32:53.890Z,67.59
2019-01-17T07:35:23.822Z,67.45
2019-01-17T07:37:53.502Z,67.00
2019-01-17T07:40:22.621Z,66.63
2019-01-17T07:42:51.699Z,66.04
2019-01-17T07:45:24.518Z,66.20
2019-01-17T07:47:53.803Z,66.48
2019-01-17T07:50:22.857Z,64.80
2019-01-17T07:52:53.627Z,65.13
2019-01-17T07:55:22.750Z,65.07
2019-01-17T07:57:53.159Z,64.78
2019-01-17T08:00:23.288Z,64.52
2019-01-17T08:02:52.880Z,64.72
2019-01-17T08:05:23.667Z,64.36
2019-01-17T08:07:53.877Z,63.95
2019-01-17T08:10:22.988Z,63.40
2019-01-17T08:12:52.067Z,63.05
2019-01-17T08:15:21.962Z,63.65
2019-01-17T08:17:51.735Z,63.80
2019-01-17T08:20:23.219Z,63.50
2019-01-17T08:22:52.314Z,63.62
2019-01-17T08:25:21.741Z,63.30
2019-01-17T08:27:51.543Z,63.55
2019-01-17T08:32:57.588Z,64.04
2019-01-17T08:35:28.609Z,64.21
2019-01-17T08:37:57.737Z,64.16
2019-01-17T08:40:30.827Z,64.43
2019-01-17T08:43:01.111Z,64.37
2019-01-17T08:45:30.853Z,64.45
2019-01-17T08:48:00.559Z,64.25
2019-01-17T08:50:29.918Z,64.37
2019-01-17T08:52:58.967Z,64.26
2019-01-17T08:55:28.112Z,63.71
2019-01-17T08:57:57.682Z,64.00
2019-01-17T09:00:26.914Z,63.93
2019-01-17T09:02:56.009Z,63.48
2019-01-17T09:05:26.051Z,63.46
2019-01-17T09:07:55.572Z,63.39
2019-01-17T09:10:27.353Z,63.12
2019-01-17T09:12:57.310Z,63.10
2019-01-17T09:15:32.753Z,62.35
2019-01-17T09:18:01.895Z,62.00
2019-01-17T09:20:32.112Z,61.37
2019-01-17T09:23:01.411Z,61.51
2019-01-17T09:25:30.566Z,61.80
2019-01-17T09:27:59.702Z,62.35
2019-01-17T09:30:28.865Z,61.58
2019-01-17T09:32:58.080Z,61.02
2019-01-17T09:35:27.427Z,61.02
2019-01-17T09:38:00.862Z,60.61
2019-01-17T09:40:29.889Z,60.88
2019-01-17T09:42:58.968Z,60.64
2019-01-17T09:45:28.008Z,59.78
2019-01-17T09:47:57.912Z,59.67
2019-01-17T09:50:32.418Z,59.04
2019-01-17T09:53:01.627Z,58.69
2019-01-17T09:55:30.699Z,58.93
2019-01-17T09:58:00.418Z,59.45
2019-01-17T10:00:31.363Z,59.43
2019-01-17T10:03:00.520Z,59.97
2019-01-17T10:05:30.064Z,59.63
2019-01-17T10:07:59.736Z,60.13
2019-01-17T10:10:29.445Z,60.21
2019-01-17T10:12:59.412Z,60.31
2019-01-17T10:15:37.485Z,60.51
2019-01-17T10:21:22.220Z,60.51
2019-01-17T10:34:49.828Z,60.73
2019-01-17T10:41:43.049Z,60.26
2019-01-17T10:44:23.365Z,60.26
2019-01-17T10:47:07.721Z,60.34
2019-01-17T10:54:47.896Z,60.25
2019-01-17T10:57:27.734Z,59.87
2019-01-17T11:10:15.132Z,59.91
2019-01-17T11:12:55.082Z,61.04
2019-01-17T11:15:39.452Z,61.04
2019-01-17T11:19:21.931Z,61.13
2019-01-17T11:22:15.137Z,61.08
2019-01-17T11:25:00.219Z,61.65
2019-01-17T11:27:44.212Z,61.80
2019-01-17T11:30:23.501Z,61.92
2019-01-17T11:33:14.162Z,61.78
2019-01-17T11:36:02.405Z,61.81
2019-01-17T11:38:42.075Z,61.89
2019-01-17T11:41:25.672Z,61.97
2019-01-17T11:46:11.892Z,61.76
2019-01-17T11:50:23.449Z,61.88
2019-01-17T11:53:16.434Z,62.05
2019-01-17T11:56:01.012Z,62.19
2019-01-17T11:59:13.096Z,62.37
2019-01-17T12:02:03.652Z,61.91
2019-01-17T12:04:43.531Z,61.89
2019-01-17T12:07:17.449Z,62.00
2019-01-17T12:09:48.810Z,62.22
2019-01-17T12:12:22.216Z,62.14
2019-01-17T12:14:51.868Z,61.88
2019-01-17T12:17:23.504Z,62.05
2019-01-17T12:19:52.595Z,61.90
2019-01-17T12:22:22.076Z,61.96
2019-01-17T12:24:51.245Z,61.98
2019-01-17T12:27:21.621Z,61.94
2019-01-17T12:29:51.183Z,61.68
2019-01-17T12:32:21.270Z,61.42
2019-01-17T12:34:50.453Z,61.45
2019-01-17T12:37:19.687Z,61.25
2019-01-17T12:39:48.845Z,61.01
2019-01-17T12:42:17.946Z,61.13
2019-01-17T12:44:49.934Z,60.69
2019-01-17T12:47:19.150Z,60.52
2019-01-17T12:49:49.251Z,60.35
2019-01-17T12:52:18.678Z,60.35
2019-01-17T12:54:48.518Z,60.24
2019-01-17T12:57:19.148Z,60.22
2019-01-17T12:59:48.246Z,60.27
2019-01-17T13:02:18.190Z,60.33
2019-01-17T13:04:47.934Z,60.81
2019-01-17T13:07:17.819Z,60.50
2019-01-17T13:09:46.996Z,60.56
2019-01-17T13:12:18.243Z,60.30
2019-01-17T13:14:50.675Z,60.76
2019-01-17T13:17:21.776Z,60.78
2019-01-17T13:19:53.124Z,60.95
2019-01-17T13:22:27.771Z,60.81
2019-01-17T13:24:57.128Z,60.82
2019-01-17T13:27:26.648Z,61.12
2019-01-17T13:29:57.842Z,60.90
2019-01-17T13:32:32.590Z,60.83
2019-01-17T13:35:01.736Z,60.92
2019-01-17T13:37:30.867Z,60.31
2019-01-17T13:40:00.212Z,60.19
2019-01-17T13:42:30.126Z,60.21
2019-01-17T13:44:59.256Z,60.14
2019-01-17T13:47:28.320Z,60.39
2019-01-17T13:49:57.663Z,60.61
2019-01-17T13:52:29.784Z,60.37
2019-01-17T13:54:59.291Z,60.14
2019-01-17T13:57:32.360Z,60.03
2019-01-17T14:00:04.114Z,60.29
2019-01-17T14:02:34.387Z,60.14
2019-01-17T14:05:04.186Z,60.19
2019-01-17T14:07:34.902Z,59.65
2019-01-17T14:10:06.666Z,59.54
2019-01-17T14:12:34.600Z,59.57
2019-01-17T14:15:06.359Z,59.44
2019-01-17T14:17:36.495Z,59.43
2019-01-17T14:20:08.761Z,58.17
2019-01-17T14:22:44.845Z,58.02
2019-01-17T14:25:15.618Z,58.06
2019-01-17T14:27:45.934Z,57.91
2019-01-17T14:30:19.254Z,58.05
2019-01-17T14:32:51.825Z,58.11
2019-01-17T14:35:21.029Z,57.72
2019-01-17T14:37:51.554Z,57.90
2019-01-17T14:40:21.394Z,57.75
2019-01-17T14:43:06.765Z,57.79
2019-01-17T14:45:36.322Z,57.84
2019-01-17T14:48:05.614Z,57.01
2019-01-17T14:50:34.690Z,57.16
2019-01-17T14:53:03.830Z,57.13
2019-01-17T14:55:34.640Z,57.23
2019-01-17T14:58:03.973Z,56.97
2019-01-17T15:00:34.388Z,57.24
2019-01-17T15:03:04.576Z,57.11
2019-01-17T15:05:33.899Z,57.04
2019-01-17T15:08:03.166Z,56.69
2019-01-17T15:10:36.459Z,56.09
2019-01-17T15:13:06.601Z,56.51
2019-01-17T15:15:35.778Z,56.18
2019-01-17T15:18:06.867Z,55.37
2019-01-17T15:20:37.617Z,55.19
2019-01-17T15:23:08.434Z,55.57
2019-01-17T15:25:37.832Z,55.58
2019-01-17T15:28:08.855Z,55.77
2019-01-17T15:30:38.956Z,55.92
2019-01-17T15:33:08.668Z,55.93
2019-01-17T15:35:38.084Z,55.99
2019-01-17T15:38:07.514Z,56.04
2019-01-17T15:40:36.742Z,56.19
2019-01-17T15:43:07.890Z,56.38
2019-01-17T15:45:35.834Z,56.14
2019-01-17T15:48:05.281Z,56.15
2019-01-17T15:50:35.928Z,56.19
2019-01-17T15:53:05.176Z,56.64
2019-01-17T15:55:34.836Z,56.58
2019-01-17T15:58:05.032Z,56.61
2019-01-17T16:00:34.531Z,56.85
2019-01-17T16:03:04.512Z,56.83
2019-01-17T16:05:34.668Z,56.98
2019-01-17T16:08:03.771Z,57.09
2019-01-17T16:10:34.068Z,57.34
2019-01-17T16:13:03.308Z,57.52
2019-01-17T16:15:32.995Z,57.27
2019-01-17T16:18:03.122Z,57.23
2019-01-17T16:20:32.439Z,57.30
2019-01-17T16:23:03.537Z,57.61
2019-01-17T16:28:32.057Z,58.15
2019-01-17T16:31:02.210Z,58.50
2019-01-17T16:33:31.349Z,58.78
2019-01-17T16:36:00.451Z,58.59
2019-01-17T16:38:29.597Z,59.10
2019-01-17T16:40:59.839Z,59.26
2019-01-17T16:43:29.700Z,59.10
2019-01-17T16:46:03.804Z,59.39
2019-01-17T16:48:33.786Z,59.67
2019-01-17T16:51:04.228Z,59.96
2019-01-17T16:53:34.532Z,60.01
2019-01-17T16:56:10.717Z,59.80
2019-01-17T16:58:43.790Z,60.27
2019-01-17T17:01:20.332Z,60.54
2019-01-17T17:04:17.727Z,60.71
2019-01-17T17:08:21.180Z,60.89
2019-01-17T17:10:58.536Z,61.30
2019-01-17T17:13:32.967Z,61.46
2019-01-17T17:16:12.428Z,61.78
2019-01-17T17:18:42.627Z,61.62
2019-01-17T17:21:11.875Z,61.88
2019-01-17T17:23:41.194Z,61.82
2019-01-17T17:26:11.516Z,61.85
2019-01-17T17:28:41.144Z,62.17
2019-01-17T17:31:10.972Z,62.10
2019-01-17T17:33:40.945Z,62.47
2019-01-17T17:36:10.650Z,62.98
2019-01-17T17:38:40.295Z,62.71
2019-01-17T17:41:09.864Z,63.08
2019-01-17T17:43:39.078Z,63.17
2019-01-17T17:46:09.479Z,63.29
2019-01-17T17:48:39.011Z,63.16
2019-01-17T17:51:08.840Z,63.39
2019-01-17T17:53:42.690Z,63.25
2019-01-17T17:56:18.079Z,63.88
2019-01-17T18:07:09.769Z,64.29
2019-01-17T18:09:39.269Z,64.40
2019-01-17T18:12:09.086Z,64.36
2019-01-17T18:14:38.484Z,64.63
2019-01-17T18:17:07.986Z,64.82
2019-01-17T18:19:37.683Z,64.71
2019-01-17T18:22:07.518Z,64.79
2019-01-17T18:24:37.910Z,64.77
2019-01-17T18:27:07.191Z,65.08
2019-01-17T18:29:36.316Z,64.80
2019-01-17T18:32:06.621Z,64.81
2019-01-17T18:34:35.872Z,65.44
2019-01-17T18:37:06.254Z,65.58
2019-01-17T18:39:35.851Z,65.71
2019-01-17T18:42:06.462Z,65.98
2019-01-17T18:44:35.614Z,66.15
2019-01-17T18:47:05.077Z,65.76
2019-01-17T18:49:34.384Z,65.82
2019-01-17T18:52:03.702Z,66.41
2019-01-17T18:54:33.107Z,66.44
2019-01-17T18:57:02.477Z,66.48
2019-01-17T18:59:31.980Z,66.56
2019-01-17T19:02:01.853Z,67.10
2019-01-17T19:04:31.181Z,66.86
2019-01-17T19:07:00.347Z,67.27
2019-01-17T19:09:29.646Z,67.16
2019-01-17T19:11:59.934Z,67.28
2019-01-17T19:14:29.119Z,67.03
2019-01-17T19:16:58.452Z,67.12
2019-01-17T19:19:27.827Z,66.98
2019-01-17T19:21:57.532Z,66.57
2019-01-17T19:24:28.192Z,66.37
2019-01-17T19:26:57.843Z,66.64
2019-01-17T19:29:27.068Z,66.60
2019-01-17T19:31:57.057Z,66.77
2019-01-17T19:34:26.237Z,66.52
2019-01-17T19:36:56.430Z,66.75
2019-01-17T19:39:26.928Z,66.75
2019-01-17T19:41:56.958Z,66.50
2019-01-17T19:44:26.286Z,66.88
2019-01-17T19:46:55.458Z,66.85
2019-01-17T19:49:24.915Z,66.64
2019-01-17T19:51:54.368Z,66.99
2019-01-17T19:54:23.481Z,66.79
2019-01-17T19:56:54.181Z,66.93
2019-01-17T19:59:23.518Z,67.18
2019-01-17T20:01:52.900Z,67.32
2019-01-17T20:04:22.278Z,67.41
2019-01-17T20:06:53.256Z,67.50
2019-01-17T20:09:22.549Z,67.43
2019-01-17T20:11:51.843Z,67.66
2019-01-17T20:14:21.141Z,68.00
2019-01-17T20:16:50.317Z,67.76
2019-01-17T20:19:19.517Z,67.79
2019-01-17T20:21:48.778Z,67.72
2019-01-17T20:24:21.455Z,68.05
2019-01-17T20:26:53.570Z,67.84
2019-01-17T20:29:23.996Z,68.16
2019-01-17T21:41:23.755Z,69.43
2019-01-17T21:43:53.054Z,69.27
2019-01-17T21:46:22.223Z,69.43
2019-01-17T21:48:51.357Z,69.73
2019-01-17T21:51:20.575Z,69.60
2019-01-17T21:53:49.710Z,69.58
2019-01-17T21:56:18.984Z,69.49
2019-01-17T21:58:48.287Z,69.68
2019-01-17T22:01:17.457Z,69.78
2019-01-17T22:03:46.637Z,69.35
2019-01-17T22:06:15.825Z,69.68
2019-01-17T22:08:44.934Z,69.26
2019-01-17T22:11:14.129Z,69.30
2019-01-17T22:13:43.380Z,69.19
2019-01-17T22:16:12.487Z,69.24
2019-01-17T22:18:43.537Z,69.21
2019-01-17T22:21:12.750Z,69.26
2019-01-17T22:23:41.950Z,69.11
2019-01-17T22:26:11.764Z,69.23
2019-01-17T22:28:44.338Z,69.27
2019-01-17T22:31:14.253Z,69.58
2019-01-17T22:33:45.966Z,69.56
2019-01-17T22:36:16.121Z,69.48
2019-01-17T22:38:51.355Z,69.63
2019-01-17T22:41:20.558Z,69.91
2019-01-17T22:43:49.659Z,70.06
2019-01-17T22:46:18.783Z,70.25
2019-01-17T22:48:47.892Z,69.91
2019-01-17T22:51:17.156Z,69.88
2019-01-17T22:53:46.283Z,70.06
2019-01-17T22:56:15.436Z,69.81
2019-01-17T23:10:16.810Z,69.63
2019-01-17T23:12:45.928Z,69.55
2019-01-17T23:15:15.717Z,69.53
2019-01-17T23:17:45.407Z,69.44
2019-01-17T23:20:14.616Z,69.21
2019-01-17T23:22:43.699Z,69.01
2019-01-17T23:25:12.730Z,68.45
2019-01-17T23:27:42.324Z,68.63
2019-01-17T23:30:11.689Z,68.61
2019-01-17T23:32:40.826Z,68.15
2019-01-17T23:35:10.635Z,68.32
2019-01-17T23:37:39.751Z,67.96
2019-01-17T23:40:09.055Z,68.14
2019-01-17T23:42:38.135Z,67.59
2019-01-17T23:45:07.447Z,67.38
2019-01-17T23:47:36.731Z,67.20
2019-01-17T23:50:06.560Z,67.38
2019-01-17T23:52:35.840Z,67.00
2019-01-17T23:55:05.547Z,67.22
2019-01-17T23:57:34.899Z,66.78
